Time;durP1;ratioP1;P1;durP2;ratioP2;P2;SDS_P1;SDS_P2;PMS_P1;PMS_P2;Temp;Humidity;BMP_temperature;BMP_pressure;BME280_temperature;BME280_humidity;BME280_pressure;Samples;Min_cycle;Max_cycle;Signal;HPM_P1;HPM_P2
2022/09/21 00:02:24;;;;;;;5.10;1.20;;;;;;;7.71;93.92;100835.71;105744;1273;23473;-65
2022/09/21 00:04:55;;;;;;;7.40;1.20;;;;;;;7.70;94.02;100841.30;105654;1273;22544;-66
2022/09/21 00:07:27;;;;;;;5.40;1.20;;;;;;;7.68;94.04;100839.45;105658;1273;22522;-64
2022/09/21 00:09:58;;;;;;;6.50;1.30;;;;;;;7.67;94.09;100840.20;105665;1273;22707;-63
2022/09/21 00:12:30;;;;;;;6.10;1.30;;;;;;;7.66;94.00;100841.67;105640;1273;22612;-66
2022/09/21 00:15:01;;;;;;;5.80;1.20;;;;;;;7.65;93.90;100843.05;105664;1273;22543;-65
2022/09/21 00:17:32;;;;;;;8.90;1.40;;;;;;;7.62;93.98;100839.40;105856;1273;22547;-65
2022/09/21 00:20:04;;;;;;;13.40;1.80;;;;;;;7.60;93.86;100842.65;105781;1273;22546;-64
2022/09/21 00:22:35;;;;;;;6.00;1.20;;;;;;;7.59;94.00;100841.24;105745;1273;25436;-67
2022/09/21 00:25:09;;;;;;;7.90;1.20;;;;;;;7.59;94.00;100841.02;105635;1273;25341;-65
2022/09/21 00:27:41;;;;;;;6.50;1.40;;;;;;;7.57;93.92;100841.71;105794;1273;22528;-65
2022/09/21 00:30:14;;;;;;;7.50;1.70;;;;;;;7.54;93.82;100846.56;105846;1273;22577;-65
2022/09/21 00:32:45;;;;;;;4.00;1.10;;;;;;;7.52;94.00;100842.42;105823;1273;26578;-65
2022/09/21 00:35:16;;;;;;;6.00;1.20;;;;;;;7.50;93.96;100848.35;105754;1273;22548;-64
2022/09/21 00:37:47;;;;;;;8.20;1.20;;;;;;;7.49;93.90;100852.43;105774;1273;22474;-64
2022/09/21 00:40:19;;;;;;;7.30;1.30;;;;;;;7.45;93.98;100850.48;105900;1273;24312;-65
2022/09/21 00:42:50;;;;;;;5.60;1.30;;;;;;;7.43;94.04;100852.06;105827;1273;22644;-65
2022/09/21 00:45:22;;;;;;;7.80;1.60;;;;;;;7.42;94.19;100852.98;105981;1273;25317;-64
2022/09/21 00:47:54;;;;;;;9.20;1.40;;;;;;;7.40;94.22;100854.45;106016;1273;25256;-64
2022/09/21 00:50:26;;;;;;;8.60;1.50;;;;;;;7.38;94.28;100855.08;105864;1273;22610;-65
2022/09/21 00:52:59;;;;;;;5.60;1.30;;;;;;;7.36;94.67;100855.67;106084;1273;25461;-65
2022/09/21 00:55:36;;;;;;;5.60;1.50;;;;;;;7.34;94.59;100855.42;105918;1273;25255;-65
2022/09/21 00:58:14;;;;;;;8.60;1.50;;;;;;;7.34;94.78;100854.38;105822;1273;22538;-65
2022/09/21 01:00:45;;;;;;;6.10;1.20;;;;;;;7.33;94.92;100858.38;105858;1273;25257;-65
2022/09/21 01:03:16;;;;;;;6.50;1.40;;;;;;;7.32;95.04;100858.23;105622;1273;22641;-64
2022/09/21 01:05:47;;;;;;;7.30;1.10;;;;;;;7.32;95.09;100865.48;105691;1273;22553;-65
2022/09/21 01:08:20;;;;;;;6.90;1.50;;;;;;;7.31;95.30;100866.38;105735;1273;22544;-65
2022/09/21 01:11:12;;;;;;;5.80;1.30;;;;;;;7.32;95.24;100867.15;102014;1273;5470361;-65
2022/09/21 01:13:56;;;;;;;8.40;1.60;;;;;;;7.31;95.36;100869.47;105872;1273;24314;-64
2022/09/21 01:16:35;;;;;;;6.80;1.40;;;;;;;7.30;95.59;100863.92;105826;1273;22547;-64
2022/09/21 01:19:22;;;;;;;8.30;1.50;;;;;;;7.30;95.55;100863.21;105705;1273;22541;-64
2022/09/21 01:22:04;;;;;;;5.70;1.30;;;;;;;7.30;95.82;100864.81;105638;1273;22549;-65
2022/09/21 01:24:50;;;;;;;4.80;1.20;;;;;;;7.31;95.79;100867.73;105969;1273;25553;-64
2022/09/21 01:27:49;;;;;;;7.40;1.40;;;;;;;7.32;96.09;100872.40;105997;1273;22567;-65
2022/09/21 01:30:22;;;;;;;5.30;1.10;;;;;;;7.32;95.98;100872.62;105932;1273;22473;-64
2022/09/21 01:33:00;;;;;;;6.10;1.50;;;;;;;7.32;96.05;100875.70;106052;1273;22536;-65
2022/09/21 01:35:36;;;;;;;8.20;2.00;;;;;;;7.32;95.92;100879.90;105699;1273;25238;-63
2022/09/21 01:38:15;;;;;;;10.60;1.80;;;;;;;7.32;95.96;100882.52;105788;1272;25399;-64
2022/09/21 01:40:51;;;;;;;6.70;1.70;;;;;;;7.32;95.82;100883.73;105706;1273;22608;-66
2022/09/21 01:43:26;;;;;;;8.40;1.70;;;;;;;7.32;95.80;100883.95;105825;1271;24254;-64
2022/09/21 01:46:02;;;;;;;7.00;1.50;;;;;;;7.32;95.96;100882.38;106009;1272;25827;-65
2022/09/21 01:48:36;;;;;;;6.80;1.40;;;;;;;7.32;95.99;100881.72;105800;1273;23398;-64
2022/09/21 01:51:12;;;;;;;6.80;1.50;;;;;;;7.34;96.09;100887.09;105755;1273;24087;-64
2022/09/21 01:53:48;;;;;;;10.80;1.80;;;;;;;7.34;96.31;100890.11;105835;1273;22600;-65
2022/09/21 01:56:24;;;;;;;6.80;1.50;;;;;;;7.34;96.50;100889.77;106115;1273;22547;-65
2022/09/21 01:59:03;;;;;;;9.80;1.30;;;;;;;7.34;96.62;100887.23;105882;1273;24229;-65
2022/09/21 02:01:42;;;;;;;8.10;1.60;;;;;;;7.34;96.53;100889.86;105880;1273;22534;-65
2022/09/21 02:04:14;;;;;;;9.20;1.60;;;;;;;7.34;96.49;100889.92;105679;1273;24276;-64
2022/09/21 02:06:47;;;;;;;6.00;1.20;;;;;;;7.35;96.55;100892.92;105875;1273;26527;-64
2022/09/21 02:09:19;;;;;;;5.00;1.50;;;;;;;7.34;96.88;100893.82;105879;1273;22538;-64
2022/09/21 02:11:50;;;;;;;6.60;1.70;;;;;;;7.35;96.90;100895.39;105657;1273;22541;-65
2022/09/21 02:14:25;;;;;;;7.20;1.80;;;;;;;7.33;96.85;100902.58;105826;1273;25247;-64
2022/09/21 02:17:06;;;;;;;7.30;1.70;;;;;;;7.32;96.82;100902.27;105789;1272;22541;-64
2022/09/21 02:19:45;;;;;;;7.00;1.90;;;;;;;7.31;97.06;100907.63;105790;1272;22568;-65
2022/09/21 02:22:28;;;;;;;7.20;1.60;;;;;;;7.29;97.08;100909.77;105627;1273;25356;-64
2022/09/21 02:25:06;;;;;;;9.90;2.10;;;;;;;7.29;97.45;100905.40;105757;1273;22534;-65
2022/09/21 02:27:44;;;;;;;11.10;2.30;;;;;;;7.28;97.67;100906.30;105881;1273;22560;-65
2022/09/21 02:30:19;;;;;;;10.20;2.60;;;;;;;7.29;97.87;100905.48;105910;1273;22535;-64
2022/09/21 02:32:59;;;;;;;11.20;2.90;;;;;;;7.29;98.57;100910.16;105857;1273;25496;-65
2022/09/21 02:35:37;;;;;;;10.30;2.60;;;;;;;7.29;98.49;100915.10;105856;1273;22589;-65
2022/09/21 02:38:17;;;;;;;15.80;3.80;;;;;;;7.27;98.61;100919.09;105691;1273;22554;-65
2022/09/21 02:40:56;;;;;;;9.30;2.60;;;;;;;7.26;98.92;100917.31;105633;1273;24242;-64
2022/09/21 02:43:34;;;;;;;11.50;3.60;;;;;;;7.24;98.74;100915.14;105726;1273;22529;-65
2022/09/21 02:46:10;;;;;;;11.60;3.40;;;;;;;7.22;98.87;100916.53;105815;1273;23197;-65
2022/09/21 02:48:45;;;;;;;18.90;4.90;;;;;;;7.21;99.30;100916.49;105902;1273;22538;-64
2022/09/21 02:51:21;;;;;;;15.00;5.20;;;;;;;7.21;98.83;100918.64;105684;1273;22619;-65
2022/09/21 02:53:55;;;;;;;13.60;4.70;;;;;;;7.21;99.17;100923.48;105808;1273;25356;-64
2022/09/21 02:56:28;;;;;;;17.20;4.30;;;;;;;7.20;99.28;100926.13;105880;1273;22567;-64
2022/09/21 02:59:02;;;;;;;14.50;5.00;;;;;;;7.19;99.35;100930.45;105853;1273;22815;-66
2022/09/21 03:01:36;;;;;;;16.10;5.20;;;;;;;7.19;99.39;100929.17;105688;1273;22532;-65
2022/09/21 03:04:07;;;;;;;15.60;5.80;;;;;;;7.19;99.23;100926.48;105982;1273;22556;-64
2022/09/21 03:06:38;;;;;;;14.40;5.10;;;;;;;7.20;99.44;100930.33;105790;1273;25256;-64
2022/09/21 03:09:09;;;;;;;11.60;3.90;;;;;;;7.21;99.43;100932.21;105658;1273;22585;-65
2022/09/21 03:11:42;;;;;;;12.20;4.30;;;;;;;7.22;99.48;100933.61;105846;1273;22556;-65
2022/09/21 03:14:13;;;;;;;17.40;4.90;;;;;;;7.24;99.59;100930.79;105607;1273;24234;-64
2022/09/21 03:16:44;;;;;;;14.80;4.40;;;;;;;7.25;99.60;100932.25;106003;1273;22558;-64
2022/09/21 03:19:16;;;;;;;16.50;5.30;;;;;;;7.26;99.72;100930.73;105942;1273;24326;-64
2022/09/21 03:21:47;;;;;;;16.60;4.70;;;;;;;7.27;99.74;100931.56;105664;1273;24428;-64
2022/09/21 03:24:44;;;;;;;14.40;4.80;;;;;;;7.28;99.60;100930.34;105522;1273;22531;-64
2022/09/21 03:27:09;;;;;;;13.90;4.80;;;;;;;7.30;99.49;100930.83;105627;1273;23331;-65
2022/09/21 03:29:40;;;;;;;17.50;5.40;;;;;;;7.32;99.56;100933.63;105600;1273;22599;-64
2022/09/21 03:32:12;;;;;;;21.10;5.20;;;;;;;7.35;99.56;100930.39;105813;1273;24626;-65
2022/09/21 03:34:43;;;;;;;15.20;5.30;;;;;;;7.36;99.63;100931.23;105650;1273;25264;-64
2022/09/21 03:37:14;;;;;;;14.90;5.50;;;;;;;7.37;99.64;100932.23;105514;1273;25313;-64
2022/09/21 03:39:46;;;;;;;14.70;5.60;;;;;;;7.37;99.63;100930.65;105602;1273;22547;-65
2022/09/21 03:42:18;;;;;;;16.10;4.70;;;;;;;7.37;99.68;100931.52;105688;1273;24348;-64
2022/09/21 03:44:48;;;;;;;15.00;4.70;;;;;;;7.38;99.76;100934.83;105807;1273;22533;-64
2022/09/21 03:47:19;;;;;;;18.40;5.70;;;;;;;7.38;99.91;100936.25;105625;1273;22556;-64
2022/09/21 03:49:50;;;;;;;20.00;5.30;;;;;;;7.39;99.94;100936.02;105577;1271;24350;-64
2022/09/21 03:52:22;;;;;;;16.70;5.30;;;;;;;7.39;99.96;100935.98;105736;1273;22672;-64
2022/09/21 03:54:54;;;;;;;14.80;5.10;;;;;;;7.40;99.97;100936.69;105723;1273;25431;-64
2022/09/21 03:57:25;;;;;;;16.30;5.10;;;;;;;7.42;99.93;100939.17;105837;1273;22544;-64
2022/09/21 03:59:56;;;;;;;13.80;4.30;;;;;;;7.43;99.97;100940.88;105690;1273;25477;-64
2022/09/21 04:02:27;;;;;;;15.60;5.50;;;;;;;7.44;99.96;100943.08;105577;1273;25379;-65
2022/09/21 04:04:58;;;;;;;14.20;5.30;;;;;;;7.46;100.00;100946.83;105607;1273;22554;-65
2022/09/21 04:07:33;;;;;;;13.90;5.30;;;;;;;7.48;100.00;100950.10;105581;1273;22570;-65
2022/09/21 04:10:06;;;;;;;16.70;5.50;;;;;;;7.50;100.00;100952.66;105752;1273;22545;-65
2022/09/21 04:12:37;;;;;;;13.30;5.00;;;;;;;7.53;100.00;100952.66;106001;1273;22695;-65
2022/09/21 04:15:10;;;;;;;13.30;4.90;;;;;;;7.54;100.00;100957.70;105664;1273;22558;-64
2022/09/21 04:17:42;;;;;;;14.20;4.90;;;;;;;7.57;100.00;100959.45;105693;1273;25268;-64
2022/09/21 04:20:14;;;;;;;16.20;4.40;;;;;;;7.58;100.00;100961.86;105784;1273;22543;-65
2022/09/21 04:22:45;;;;;;;15.50;5.60;;;;;;;7.60;100.00;100963.17;105866;1273;22545;-65
2022/09/21 04:25:17;;;;;;;19.00;6.20;;;;;;;7.61;100.00;100965.27;105706;1273;22537;-65
2022/09/21 04:27:49;;;;;;;15.20;5.60;;;;;;;7.62;100.00;100967.15;105764;1273;24239;-64
2022/09/21 04:30:20;;;;;;;15.40;5.10;;;;;;;7.65;100.00;100963.50;105906;1273;22532;-65
2022/09/21 04:32:51;;;;;;;16.00;5.40;;;;;;;7.66;100.00;100968.08;105765;1273;25547;-64
2022/09/21 04:35:22;;;;;;;16.10;5.40;;;;;;;7.67;100.00;100965.20;105942;1273;22571;-64
2022/09/21 04:37:56;;;;;;;13.20;3.90;;;;;;;7.67;100.00;100971.13;105592;1273;22561;-65
2022/09/21 04:40:28;;;;;;;17.00;5.50;;;;;;;7.67;100.00;100970.17;105749;1273;24369;-65
2022/09/21 04:42:59;;;;;;;14.50;4.30;;;;;;;7.68;100.00;100974.11;105694;1273;24449;-65
2022/09/21 04:45:31;;;;;;;15.30;5.70;;;;;;;7.69;100.00;100976.62;105652;1273;24335;-65
2022/09/21 04:48:02;;;;;;;13.10;4.60;;;;;;;7.70;100.00;100982.06;105635;1273;22544;-65
2022/09/21 04:50:33;;;;;;;18.80;6.00;;;;;;;7.70;100.00;100980.73;105589;1273;22559;-66
2022/09/21 04:53:05;;;;;;;15.90;5.60;;;;;;;7.70;100.00;100983.02;105618;1273;24664;-65
2022/09/21 04:55:35;;;;;;;18.80;5.80;;;;;;;7.70;100.00;100983.98;105914;1273;22560;-65
2022/09/21 04:58:07;;;;;;;18.80;7.00;;;;;;;7.70;100.00;100985.41;105513;1273;25448;-65
2022/09/21 05:00:38;;;;;;;14.50;6.10;;;;;;;7.70;100.00;100986.20;105500;1273;22539;-65
2022/09/21 05:03:09;;;;;;;16.10;5.40;;;;;;;7.70;100.00;100987.01;105506;1273;22536;-65
2022/09/21 05:05:46;;;;;;;19.30;5.70;;;;;;;7.70;100.00;100982.70;105532;1273;23079;-65
2022/09/21 05:10:01;;;;;;;16.10;5.80;;;;;;;7.70;100.00;100983.20;105813;1273;26508;-65
2022/09/21 05:11:11;;;;;;;19.00;6.50;;;;;;;7.71;100.00;100987.95;106999;1273;22648;-66
2022/09/21 05:13:43;;;;;;;17.30;7.10;;;;;;;7.71;100.00;100990.05;105704;1273;24326;-66
2022/09/21 05:16:15;;;;;;;17.90;6.10;;;;;;;7.70;100.00;100990.56;105857;1273;25256;-66
2022/09/21 05:18:47;;;;;;;19.40;6.80;;;;;;;7.70;100.00;100989.06;105778;1273;22580;-66
2022/09/21 05:21:18;;;;;;;18.20;6.40;;;;;;;7.70;100.00;100985.56;105647;1273;25259;-66
2022/09/21 05:23:48;;;;;;;17.80;6.50;;;;;;;7.73;100.00;100994.06;105803;1273;22556;-65
2022/09/21 05:26:20;;;;;;;20.40;7.00;;;;;;;7.74;100.00;100997.69;105880;1273;22552;-64
2022/09/21 05:28:53;;;;;;;19.70;6.90;;;;;;;7.76;100.00;101001.45;105983;1273;24849;-64
2022/09/21 05:31:38;;;;;;;19.40;6.80;;;;;;;7.76;100.00;101003.34;105936;1273;22579;-64
2022/09/21 05:34:30;;;;;;;19.70;7.80;;;;;;;7.78;100.00;101004.88;105816;1273;22487;-64
2022/09/21 05:37:08;;;;;;;19.20;7.90;;;;;;;7.79;100.00;101006.51;105807;1273;24495;-65
2022/09/21 05:39:41;;;;;;;22.00;8.30;;;;;;;7.79;100.00;101005.70;105795;1273;22802;-65
2022/09/21 05:42:14;;;;;;;21.10;8.10;;;;;;;7.80;100.00;101008.61;105781;1273;22633;-65
2022/09/21 05:44:48;;;;;;;24.70;11.00;;;;;;;7.80;100.00;101005.98;105864;1273;24281;-65
2022/09/21 05:47:26;;;;;;;22.40;8.80;;;;;;;7.83;100.00;101012.13;105734;1273;22546;-65
2022/09/21 05:50:06;;;;;;;23.50;8.70;;;;;;;7.86;100.00;101012.74;105808;1273;22552;-65
2022/09/21 05:52:44;;;;;;;19.90;7.20;;;;;;;7.88;100.00;101019.96;105866;1272;22528;-66
2022/09/21 05:55:29;;;;;;;18.80;7.80;;;;;;;7.91;100.00;101017.77;105902;1273;25696;-65
2022/09/21 05:58:07;;;;;;;19.10;7.50;;;;;;;7.93;100.00;101017.85;106266;1273;22543;-65
2022/09/21 06:00:51;;;;;;;19.30;7.00;;;;;;;7.94;100.00;101019.66;105664;1273;22541;-66
2022/09/21 06:03:36;;;;;;;16.40;6.60;;;;;;;7.94;100.00;101027.67;105869;1273;26669;-65
2022/09/21 06:06:09;;;;;;;19.90;8.20;;;;;;;7.95;100.00;101015.49;105893;1273;22557;-65
2022/09/21 06:08:40;;;;;;;20.60;8.80;;;;;;;7.97;100.00;101014.33;105862;1273;24294;-65
2022/09/21 06:11:15;;;;;;;18.50;7.10;;;;;;;7.99;100.00;101018.77;105671;1273;25320;-65
2022/09/21 06:13:46;;;;;;;21.20;8.70;;;;;;;8.00;100.00;101028.05;105904;1273;22535;-65
2022/09/21 06:16:20;;;;;;;19.20;7.40;;;;;;;8.02;100.00;101026.58;105893;1273;22566;-65
2022/09/21 06:18:51;;;;;;;18.00;7.40;;;;;;;8.04;100.00;101026.65;105666;1273;25543;-64
2022/09/21 06:21:22;;;;;;;19.70;8.30;;;;;;;8.06;100.00;101030.89;105897;1273;24327;-65
2022/09/21 06:23:54;;;;;;;17.80;6.90;;;;;;;8.09;100.00;101034.20;105982;1273;26728;-66
2022/09/21 06:26:29;;;;;;;22.90;8.60;;;;;;;8.11;100.00;101035.03;105693;1273;23581;-67
2022/09/21 06:29:00;;;;;;;19.20;7.60;;;;;;;8.13;100.00;101034.08;105868;1273;24372;-65
2022/09/21 06:31:33;;;;;;;18.50;6.50;;;;;;;8.16;100.00;101036.23;105994;1273;24458;-65
2022/09/21 06:34:05;;;;;;;23.70;9.50;;;;;;;8.20;100.00;101025.85;105731;1273;24302;-65
2022/09/21 06:36:36;;;;;;;21.10;7.60;;;;;;;8.23;100.00;101029.66;105832;1273;25310;-66
2022/09/21 06:39:08;;;;;;;19.00;7.50;;;;;;;8.24;100.00;101026.13;105861;1273;22553;-66
2022/09/21 06:41:39;;;;;;;21.30;8.30;;;;;;;8.27;100.00;101027.17;105699;1271;22558;-65
2022/09/21 06:44:11;;;;;;;19.00;7.30;;;;;;;8.30;100.00;101027.87;105611;1273;25570;-65
2022/09/21 06:46:45;;;;;;;19.80;8.60;;;;;;;8.32;100.00;101032.59;105703;1273;22554;-65
2022/09/21 06:49:17;;;;;;;21.90;8.40;;;;;;;8.34;100.00;101031.73;105912;1273;22551;-65
2022/09/21 06:51:50;;;;;;;19.10;7.10;;;;;;;8.38;100.00;101036.73;105737;1273;22553;-65
2022/09/21 06:54:23;;;;;;;19.00;6.80;;;;;;;8.44;100.00;101041.67;105738;1273;26322;-65
2022/09/21 06:56:55;;;;;;;14.60;5.60;;;;;;;8.51;100.00;101046.22;105687;1273;25338;-65
2022/09/21 06:59:26;;;;;;;16.50;6.20;;;;;;;8.60;100.00;101054.02;105557;1273;22545;-65
2022/09/21 07:01:58;;;;;;;15.10;5.40;;;;;;;8.70;100.00;101050.21;105861;1273;25367;-65
2022/09/21 07:04:30;;;;;;;12.10;3.20;;;;;;;8.80;100.00;101049.80;105718;1273;22604;-67
2022/09/21 07:07:04;;;;;;;11.30;3.80;;;;;;;8.88;100.00;101052.25;105796;1273;22609;-66
2022/09/21 07:09:36;;;;;;;14.00;3.40;;;;;;;8.97;100.00;101054.02;105648;1273;22579;-67
2022/09/21 07:12:07;;;;;;;12.90;3.80;;;;;;;9.04;100.00;101059.86;105719;1273;25551;-66
2022/09/21 07:14:39;;;;;;;10.50;3.50;;;;;;;9.03;100.00;101060.26;105636;1273;24875;-66
2022/09/21 07:17:10;;;;;;;11.00;3.80;;;;;;;9.04;100.00;101062.21;105607;1273;22729;-66
2022/09/21 07:19:41;;;;;;;13.60;3.50;;;;;;;9.09;100.00;101063.50;105677;1273;22549;-66
2022/09/21 07:22:13;;;;;;;12.90;3.30;;;;;;;9.15;100.00;101067.17;105894;1273;26526;-66
2022/09/21 07:24:44;;;;;;;12.80;4.60;;;;;;;9.21;100.00;101071.13;105917;1273;25375;-66
2022/09/21 07:27:15;;;;;;;11.30;3.70;;;;;;;9.23;100.00;101072.80;105837;1273;22795;-66
2022/09/21 07:29:46;;;;;;;10.40;3.50;;;;;;;9.24;100.00;101077.14;105756;1273;25688;-66
2022/09/21 07:32:18;;;;;;;13.10;4.70;;;;;;;9.26;100.00;101079.64;105866;1273;24292;-65
2022/09/21 07:34:49;;;;;;;13.30;3.50;;;;;;;9.26;100.00;101076.42;105841;1273;23197;-66
2022/09/21 07:37:22;;;;;;;13.10;4.70;;;;;;;9.32;100.00;101075.77;105696;1273;25128;-66
2022/09/21 07:39:54;;;;;;;10.50;3.60;;;;;;;9.37;100.00;101077.63;105795;1273;25326;-65
2022/09/21 07:42:26;;;;;;;10.80;3.90;;;;;;;9.40;100.00;101080.58;105873;1273;22546;-67
2022/09/21 07:45:01;;;;;;;10.50;3.70;;;;;;;9.41;100.00;101076.88;105753;1273;25501;-66
2022/09/21 07:47:32;;;;;;;14.80;5.10;;;;;;;9.42;100.00;101083.44;106046;1272;25315;-66
2022/09/21 07:50:03;;;;;;;14.10;5.00;;;;;;;9.42;100.00;101085.36;105727;1273;25257;-66
2022/09/21 07:52:35;;;;;;;15.20;5.40;;;;;;;9.41;100.00;101086.45;105765;1273;24241;-66
2022/09/21 07:55:07;;;;;;;14.00;5.40;;;;;;;9.39;100.00;101090.33;105774;1273;25429;-66
2022/09/21 08:00:33;;;;;;;15.70;6.10;;;;;;;9.35;100.00;101091.89;105588;1273;25362;-66
2022/09/21 08:03:04;;;;;;;17.70;6.10;;;;;;;9.33;100.00;101090.95;105688;1273;22555;-66
2022/09/21 08:05:36;;;;;;;15.60;6.10;;;;;;;9.33;100.00;101091.41;105705;1273;22559;-66
2022/09/21 08:08:07;;;;;;;15.40;6.20;;;;;;;9.33;100.00;101089.15;105721;1273;23490;-67
2022/09/21 08:10:39;;;;;;;15.90;6.30;;;;;;;9.37;100.00;101094.55;105609;1273;26510;-66
2022/09/21 08:13:10;;;;;;;16.30;6.50;;;;;;;9.41;100.00;101091.27;105635;1273;25317;-66
2022/09/21 08:15:42;;;;;;;19.00;8.10;;;;;;;9.48;100.00;101089.38;105864;1273;22617;-66
2022/09/21 08:18:13;;;;;;;18.90;7.40;;;;;;;9.54;100.00;101090.05;105715;1273;25343;-67
2022/09/21 08:20:53;;;;;;;18.30;7.40;;;;;;;9.59;100.00;101089.95;105617;1273;22618;-67
2022/09/21 08:23:24;;;;;;;17.50;7.70;;;;;;;9.62;100.00;101094.43;105634;1273;25277;-66
2022/09/21 08:26:00;;;;;;;13.60;5.70;;;;;;;9.65;100.00;101096.40;105650;1273;25417;-66
2022/09/21 08:28:32;;;;;;;16.00;6.20;;;;;;;9.67;100.00;101097.23;105719;1273;27304;-66
2022/09/21 08:31:06;;;;;;;15.70;6.60;;;;;;;9.67;100.00;101101.13;105672;1273;25502;-66
2022/09/21 08:33:38;;;;;;;15.60;6.30;;;;;;;9.70;100.00;101100.93;105696;1273;22553;-67
2022/09/21 08:36:10;;;;;;;14.60;6.10;;;;;;;9.77;100.00;101104.13;105599;1273;22539;-66
2022/09/21 08:38:43;;;;;;;15.20;6.30;;;;;;;9.84;100.00;101099.81;105768;1273;22556;-66
2022/09/21 08:41:20;;;;;;;19.80;8.70;;;;;;;9.91;100.00;101103.55;105971;1273;22682;-66
2022/09/21 08:43:55;;;;;;;21.40;7.60;;;;;;;9.96;100.00;101101.67;105899;1273;23206;-67
2022/09/21 08:46:34;;;;;;;16.60;6.50;;;;;;;9.98;100.00;101103.98;105745;1272;23092;-66
2022/09/21 08:49:13;;;;;;;18.70;7.00;;;;;;;10.00;100.00;101100.17;105683;1273;25967;-66
2022/09/21 08:51:53;;;;;;;17.80;7.20;;;;;;;10.04;100.00;101105.35;105733;1273;25618;-66
2022/09/21 08:54:35;;;;;;;16.40;6.60;;;;;;;10.10;100.00;101106.09;105835;1273;22522;-66
2022/09/21 08:57:09;;;;;;;15.60;6.30;;;;;;;10.17;100.00;101103.23;105700;1273;25457;-68
2022/09/21 08:59:43;;;;;;;15.00;6.70;;;;;;;10.25;99.99;101106.89;105673;1274;22651;-67
2022/09/21 09:02:38;;;;;;;16.40;6.80;;;;;;;10.31;100.00;101108.59;105622;1274;22529;-66
2022/09/21 09:05:23;;;;;;;18.00;6.70;;;;;;;10.38;100.00;101113.90;105593;1274;22524;-67
2022/09/21 09:08:21;;;;;;;15.10;6.40;;;;;;;10.42;99.95;101113.33;105735;1274;24250;-66
2022/09/21 09:11:01;;;;;;;17.10;6.60;;;;;;;10.45;99.65;101111.09;105635;1278;22557;-67
2022/09/21 09:13:52;;;;;;;17.30;7.30;;;;;;;10.50;99.93;101108.27;105479;1279;25434;-66
2022/09/21 09:16:33;;;;;;;17.60;7.30;;;;;;;10.61;100.00;101099.87;105381;1279;25265;-67
2022/09/21 09:19:15;;;;;;;14.20;6.20;;;;;;;10.76;99.93;101097.90;105401;1279;26059;-67
2022/09/21 09:21:48;;;;;;;15.00;6.30;;;;;;;10.89;99.64;101093.00;105460;1279;22697;-67
2022/09/21 09:24:24;;;;;;;15.10;6.30;;;;;;;11.01;99.04;101099.92;105560;1279;22574;-67
2022/09/21 09:27:00;;;;;;;16.10;7.30;;;;;;;11.06;98.34;101095.78;105520;1279;22685;-66
2022/09/21 09:29:39;;;;;;;14.70;6.40;;;;;;;11.13;98.58;101099.34;105797;1279;24362;-67
2022/09/21 09:32:16;;;;;;;15.20;6.00;;;;;;;11.18;98.63;101101.84;105502;1279;22682;-67
2022/09/21 09:34:54;;;;;;;17.50;6.90;;;;;;;11.22;98.77;101099.98;105563;1279;22659;-67
2022/09/21 09:37:35;;;;;;;12.70;5.30;;;;;;;11.23;98.25;101101.88;105310;1279;25393;-66
2022/09/21 09:40:08;;;;;;;15.50;6.10;;;;;;;11.21;98.27;101100.50;105437;1279;25547;-67
2022/09/21 09:42:51;;;;;;;12.00;5.20;;;;;;;11.20;98.07;101101.59;105452;1279;22748;-67
2022/09/21 09:45:38;;;;;;;16.60;5.30;;;;;;;11.19;98.22;101100.95;105468;1279;25338;-66
2022/09/21 09:48:23;;;;;;;16.00;5.80;;;;;;;11.19;98.00;101101.86;105565;1276;26424;-67
2022/09/21 09:50:54;;;;;;;13.80;5.60;;;;;;;11.21;98.02;101097.16;105687;1274;22697;-67
2022/09/21 09:53:27;;;;;;;13.60;5.20;;;;;;;11.24;97.85;101098.77;105580;1275;22551;-67
2022/09/21 09:56:00;;;;;;;11.60;5.10;;;;;;;11.28;97.98;101097.20;105550;1274;25370;-67
2022/09/21 09:58:41;;;;;;;13.30;4.80;;;;;;;11.35;98.27;101093.20;105777;1273;25430;-67
2022/09/21 10:01:40;;;;;;;17.20;5.30;;;;;;;11.45;98.18;101093.33;105869;1273;24999;-68
2022/09/21 10:04:14;;;;;;;10.50;4.00;;;;;;;11.63;98.48;101092.83;106101;1273;22611;-69
2022/09/21 10:06:46;;;;;;;12.30;3.10;;;;;;;11.81;98.45;101092.91;106014;1273;22530;-67
2022/09/21 10:09:27;;;;;;;9.00;3.10;;;;;;;12.00;98.04;101091.18;105828;1273;24331;-67
2022/09/21 10:12:00;;;;;;;9.30;3.00;;;;;;;12.12;97.13;101086.48;105964;1273;22553;-67
2022/09/21 10:14:35;;;;;;;10.30;2.90;;;;;;;12.26;96.74;101082.48;106269;1273;22545;-67
2022/09/21 10:17:08;;;;;;;8.50;2.20;;;;;;;12.40;96.70;101077.91;106085;1273;25476;-67
2022/09/21 10:19:40;;;;;;;7.50;2.20;;;;;;;12.55;96.39;101078.61;106175;1273;26473;-67
2022/09/21 10:22:19;;;;;;;9.60;2.50;;;;;;;12.69;95.40;101076.33;106134;1273;23332;-67
2022/09/21 10:24:53;;;;;;;6.40;1.60;;;;;;;12.79;95.21;101075.28;106038;1273;23169;-68
2022/09/21 10:27:29;;;;;;;6.00;1.40;;;;;;;12.84;92.64;101080.45;106230;1273;25243;-68
2022/09/21 10:30:00;;;;;;;10.30;2.40;;;;;;;12.85;92.91;101075.88;106304;1273;25365;-67
2022/09/21 10:32:32;;;;;;;6.80;1.60;;;;;;;12.88;93.47;101078.62;106400;1273;22868;-68
2022/09/21 10:35:19;;;;;;;5.90;1.20;;;;;;;12.90;92.14;101078.98;106229;1273;25178;-68
2022/09/21 10:38:11;;;;;;;3.90;1.50;;;;;;;12.92;92.10;101074.98;106247;1273;22478;-67
2022/09/21 10:40:45;;;;;;;5.70;1.40;;;;;;;12.93;91.37;101075.77;106169;1273;25356;-68
2022/09/21 10:43:35;;;;;;;5.20;1.50;;;;;;;12.97;92.04;101072.19;106263;1273;24307;-67
2022/09/21 10:46:06;;;;;;;6.30;1.50;;;;;;;13.00;91.29;101072.56;106214;1273;25963;-68
2022/09/21 10:48:45;;;;;;;8.00;1.40;;;;;;;13.03;91.61;101068.20;106278;1273;22648;-67
2022/09/21 10:51:33;;;;;;;6.40;1.40;;;;;;;13.08;91.63;101064.52;106336;1273;25377;-68
2022/09/21 10:54:10;;;;;;;5.90;1.30;;;;;;;13.13;91.17;101059.97;106282;1273;25266;-68
2022/09/21 10:56:54;;;;;;;4.60;1.00;;;;;;;13.15;90.55;101059.67;106310;1273;26633;-68
2022/09/21 10:59:28;;;;;;;4.80;1.00;;;;;;;13.18;90.33;101057.39;106360;1273;22556;-68
2022/09/21 11:02:01;;;;;;;5.70;1.20;;;;;;;13.25;90.24;101054.98;106250;1274;24119;-68
2022/09/21 11:04:41;;;;;;;3.30;0.90;;;;;;;13.33;90.24;101055.12;106425;1273;22541;-68
2022/09/21 11:07:21;;;;;;;7.50;1.10;;;;;;;13.40;89.16;101055.29;106327;1273;24246;-68
2022/09/21 11:09:58;;;;;;;3.90;1.00;;;;;;;13.42;88.97;101055.96;106359;1273;22653;-68
2022/09/21 11:12:42;;;;;;;6.20;1.10;;;;;;;13.47;88.94;101051.46;106487;1273;23378;-69
2022/09/21 11:15:24;;;;;;;4.10;1.10;;;;;;;13.48;87.98;101049.05;106415;1273;22690;-69
2022/09/21 11:18:05;;;;;;;5.20;1.30;;;;;;;13.48;88.41;101045.88;106394;1273;24411;-69
2022/09/21 11:20:46;;;;;;;4.00;0.90;;;;;;;13.50;88.18;101049.38;106484;1273;25676;-68
2022/09/21 11:23:34;;;;;;;7.20;1.00;;;;;;;13.54;87.86;101048.70;106248;1273;25260;-69
2022/09/21 11:26:12;;;;;;;4.40;1.00;;;;;;;13.63;88.06;101046.02;106385;1273;24295;-68
2022/09/21 11:28:49;;;;;;;5.40;0.90;;;;;;;13.68;85.90;101044.55;106322;1273;25784;-69
2022/09/21 11:31:51;;;;;;;4.90;0.70;;;;;;;13.67;85.51;101037.84;106482;1273;22573;-69
2022/09/21 11:34:55;;;;;;;4.00;0.70;;;;;;;13.70;85.79;101033.05;106450;1273;24211;-68
2022/09/21 11:37:49;;;;;;;2.50;0.70;;;;;;;13.75;85.42;101032.69;106132;1276;22691;-68
2022/09/21 11:40:32;;;;;;;3.90;1.00;;;;;;;13.84;84.52;101030.75;106286;1276;22649;-68
2022/09/21 11:43:17;;;;;;;2.70;0.70;;;;;;;13.95;85.04;101029.67;106434;1276;24353;-69
2022/09/21 11:46:05;;;;;;;3.60;0.70;;;;;;;14.09;84.53;101024.06;106883;1276;22549;-69
2022/09/21 11:48:55;;;;;;;3.60;0.70;;;;;;;14.22;84.79;101022.85;106419;1276;24177;-69
2022/09/21 11:51:42;;;;;;;3.10;0.70;;;;;;;14.33;83.55;101015.52;106420;1276;22554;-68
2022/09/21 11:54:37;;;;;;;6.90;0.70;;;;;;;14.41;83.09;101019.30;106495;1276;24500;-68
2022/09/21 11:57:18;;;;;;;2.60;0.70;;;;;;;14.40;81.10;101023.38;106625;1276;22545;-67